Time;durP1;ratioP1;P1;durP2;ratioP2;P2;SDS_P1;SDS_P2;PMS_P1;PMS_P2;Temp;Humidity;BMP_temperature;BMP_pressure;BME280_temperature;BME280_humidity;BME280_pressure;Samples;Min_cycle;Max_cycle;Signal;HPM_P1;HPM_P2
2023/12/09 00:02:03;;;;;;;;;;;7.40;99.90;;;;;;5047815;28;20360;-71
2023/12/09 00:04:29;;;;;;;;;;;7.40;99.90;;;;;;5044848;28;19933;-71
2023/12/09 00:06:58;;;;;;;;;;;7.40;99.90;;;;;;5061673;28;19924;-71
2023/12/09 00:09:25;;;;;;;;;;;7.40;99.90;;;;;;5049734;28;19925;-72
2023/12/09 00:11:52;;;;;;;;;;;7.40;99.90;;;;;;5043685;28;19925;-71
2023/12/09 00:14:20;;;;;;;;;;;7.30;99.90;;;;;;5048686;28;19924;-70
2023/12/09 00:16:47;;;;;;;;;;;7.30;99.90;;;;;;5061667;28;19936;-69
2023/12/09 00:19:13;;;;;;;;;;;7.20;99.90;;;;;;5053298;28;19925;-70
2023/12/09 00:21:40;;;;;;;;;;;7.20;99.90;;;;;;5045097;28;20427;-71
2023/12/09 00:24:08;;;;;;;;;;;7.20;99.90;;;;;;5057265;28;20315;-71
2023/12/09 00:26:36;;;;;;;;;;;7.20;99.90;;;;;;5044463;28;19960;-71
2023/12/09 00:29:03;;;;;;;;;;;7.20;99.90;;;;;;5044617;28;19933;-71
2023/12/09 00:31:29;;;;;;;;;;;7.20;99.90;;;;;;5046773;28;19972;-70
2023/12/09 00:33:56;;;;;;;;;;;7.10;99.90;;;;;;5050314;28;20354;-71
2023/12/09 00:36:23;;;;;;;;;;;7.10;99.90;;;;;;5055942;28;19932;-71
2023/12/09 00:38:50;;;;;;;;;;;7.10;99.90;;;;;;5053529;28;20308;-72
2023/12/09 00:41:18;;;;;;;;;;;7.10;99.90;;;;;;5052102;28;19932;-70
2023/12/09 00:43:45;;;;;;;;;;;7.00;99.90;;;;;;5045469;28;20384;-70
2023/12/09 00:46:12;;;;;;;;;;;7.00;99.90;;;;;;5050153;28;19978;-70
2023/12/09 00:48:38;;;;;;;;;;;7.00;99.90;;;;;;5050006;28;19947;-70
2023/12/09 00:51:08;;;;;;;;;;;7.00;99.90;;;;;;5045026;28;20026;-70
2023/12/09 00:53:35;;;;;;;;;;;7.00;99.90;;;;;;5049907;28;19931;-71
2023/12/09 00:56:02;;;;;;;;;;;7.00;99.90;;;;;;5045747;28;19925;-72
2023/12/09 00:58:30;;;;;;;;;;;6.90;99.90;;;;;;5043244;28;19925;-71
2023/12/09 01:00:57;;;;;;;;;;;6.90;99.90;;;;;;5057214;28;19971;-71
2023/12/09 01:03:23;;;;;;;;;;;6.90;99.90;;;;;;5047786;28;19940;-71
2023/12/09 01:05:50;;;;;;;;;;;6.90;99.90;;;;;;5045213;28;19933;-71
2023/12/09 01:08:17;;;;;;;;;;;6.90;99.90;;;;;;5043083;28;19929;-71
2023/12/09 01:10:44;;;;;;;;;;;7.00;99.90;;;;;;5045243;28;19952;-71
2023/12/09 01:13:10;;;;;;;;;;;7.00;99.90;;;;;;5046473;28;19924;-71
2023/12/09 01:15:39;;;;;;;;;;;7.00;99.90;;;;;;5053863;28;22312;-71
2023/12/09 01:18:06;;;;;;;;;;;6.90;99.90;;;;;;5045266;28;19929;-71
2023/12/09 01:20:32;;;;;;;;;;;6.90;99.90;;;;;;5047571;28;19924;-71
2023/12/09 01:22:59;;;;;;;;;;;6.90;99.90;;;;;;5046616;28;20345;-70
2023/12/09 01:25:26;;;;;;;;;;;6.90;99.90;;;;;;5052066;28;20491;-70
2023/12/09 01:27:53;;;;;;;;;;;6.80;99.90;;;;;;5044451;28;21737;-69
2023/12/09 01:30:20;;;;;;;;;;;6.90;99.90;;;;;;5047241;28;20134;-70
2023/12/09 01:32:48;;;;;;;;;;;6.90;99.90;;;;;;5043251;28;19924;-70
2023/12/09 01:35:14;;;;;;;;;;;6.90;99.90;;;;;;5048144;28;20366;-71
2023/12/09 01:37:41;;;;;;;;;;;6.80;99.90;;;;;;5053362;28;19937;-70
2023/12/09 01:40:08;;;;;;;;;;;6.80;99.90;;;;;;5052345;28;19925;-70
2023/12/09 01:42:35;;;;;;;;;;;6.80;99.90;;;;;;5052388;28;20346;-68
2023/12/09 01:45:03;;;;;;;;;;;6.70;99.90;;;;;;5051733;28;19925;-69
2023/12/09 01:47:29;;;;;;;;;;;6.70;99.90;;;;;;5048392;28;19929;-69
2023/12/09 01:49:58;;;;;;;;;;;6.70;99.90;;;;;;5046129;28;19988;-69
2023/12/09 01:52:24;;;;;;;;;;;6.70;99.90;;;;;;5049105;28;19936;-70
2023/12/09 01:54:51;;;;;;;;;;;6.60;99.90;;;;;;5042291;28;20349;-69
2023/12/09 01:57:18;;;;;;;;;;;6.60;99.90;;;;;;5048042;28;19932;-70
2023/12/09 01:59:45;;;;;;;;;;;6.60;99.90;;;;;;5043971;28;19986;-69
2023/12/09 02:02:11;;;;;;;;;;;6.70;99.90;;;;;;5043551;28;19982;-69
2023/12/09 02:04:38;;;;;;;;;;;6.70;99.90;;;;;;5043113;28;19932;-70
2023/12/09 02:07:06;;;;;;;;;;;6.70;99.90;;;;;;5048244;28;19933;-71
2023/12/09 02:09:33;;;;;;;;;;;6.70;99.90;;;;;;5044640;28;19935;-72
2023/12/09 02:12:04;;;;;;;;;;;6.60;99.90;;;;;;5047658;28;19982;-71
2023/12/09 02:14:34;;;;;;;;;;;6.60;99.90;;;;;;5041658;28;19925;-71
2023/12/09 02:17:04;;;;;;;;;;;6.50;99.90;;;;;;5046198;28;20007;-71
2023/12/09 02:19:31;;;;;;;;;;;6.60;99.90;;;;;;5041592;28;19924;-70
2023/12/09 02:22:01;;;;;;;;;;;6.60;99.90;;;;;;5051634;28;19924;-71
2023/12/09 02:24:29;;;;;;;;;;;6.60;99.90;;;;;;5046756;28;19933;-71
2023/12/09 02:26:59;;;;;;;;;;;6.60;99.90;;;;;;5047296;28;20035;-71
2023/12/09 02:29:26;;;;;;;;;;;6.60;99.90;;;;;;5047856;28;19980;-72
2023/12/09 02:31:57;;;;;;;;;;;6.60;99.90;;;;;;5049242;28;20395;-71
2023/12/09 02:34:25;;;;;;;;;;;6.60;99.90;;;;;;5047726;28;19924;-71
2023/12/09 02:36:53;;;;;;;;;;;6.60;99.90;;;;;;5046727;28;19925;-71
2023/12/09 02:39:20;;;;;;;;;;;6.50;99.90;;;;;;5059606;28;19932;-71
2023/12/09 02:41:49;;;;;;;;;;;6.50;99.90;;;;;;5054417;28;19928;-71
2023/12/09 02:44:15;;;;;;;;;;;6.60;99.90;;;;;;5048367;28;19960;-71
2023/12/09 02:46:42;;;;;;;;;;;6.60;99.90;;;;;;5042185;28;19998;-70
2023/12/09 02:49:09;;;;;;;;;;;6.60;99.90;;;;;;5041779;28;19929;-71
2023/12/09 02:51:36;;;;;;;;;;;6.60;99.90;;;;;;5046966;28;19925;-71
2023/12/09 02:54:02;;;;;;;;;;;6.50;99.90;;;;;;5043249;28;19929;-71
2023/12/09 02:56:29;;;;;;;;;;;6.50;99.90;;;;;;5053981;28;19928;-71
2023/12/09 02:58:57;;;;;;;;;;;6.50;99.90;;;;;;5055348;28;19971;-70
2023/12/09 03:01:24;;;;;;;;;;;6.50;99.90;;;;;;5046187;28;20454;-70
2023/12/09 03:03:51;;;;;;;;;;;6.50;99.90;;;;;;5046094;28;19959;-70
2023/12/09 03:06:18;;;;;;;;;;;6.50;99.90;;;;;;5050108;28;19929;-70
2023/12/09 03:08:44;;;;;;;;;;;6.50;99.90;;;;;;5047657;28;19932;-70
2023/12/09 03:11:11;;;;;;;;;;;6.60;99.90;;;;;;5048000;28;19976;-70
2023/12/09 03:13:38;;;;;;;;;;;6.70;99.90;;;;;;5051612;28;19929;-70
2023/12/09 03:16:06;;;;;;;;;;;6.70;99.90;;;;;;5049374;28;19994;-70
2023/12/09 03:18:33;;;;;;;;;;;6.60;99.90;;;;;;5049033;28;20014;-69
2023/12/09 03:21:00;;;;;;;;;;;6.70;99.90;;;;;;5045647;28;19940;-69
2023/12/09 03:23:27;;;;;;;;;;;6.60;99.90;;;;;;5051125;28;20701;-69
2023/12/09 03:25:53;;;;;;;;;;;6.50;99.90;;;;;;5050065;28;19925;-69
2023/12/09 03:28:20;;;;;;;;;;;6.50;99.90;;;;;;5056311;28;20399;-70
2023/12/09 03:30:47;;;;;;;;;;;6.50;99.90;;;;;;5051927;28;19929;-71
2023/12/09 03:33:16;;;;;;;;;;;6.50;99.90;;;;;;5067703;28;19972;-70
2023/12/09 03:35:42;;;;;;;;;;;6.50;99.90;;;;;;5051619;28;19925;-70
2023/12/09 03:38:09;;;;;;;;;;;6.50;99.90;;;;;;5055293;28;19968;-70
2023/12/09 03:40:36;;;;;;;;;;;6.40;99.90;;;;;;5044819;28;19924;-71
2023/12/09 03:43:03;;;;;;;;;;;6.50;99.90;;;;;;5052633;28;19929;-70
2023/12/09 03:45:29;;;;;;;;;;;6.40;99.90;;;;;;5052048;28;19928;-72
2023/12/09 03:47:56;;;;;;;;;;;6.40;99.90;;;;;;5046466;28;20032;-70
2023/12/09 03:50:24;;;;;;;;;;;6.50;99.90;;;;;;5049897;28;19929;-69
2023/12/09 03:52:51;;;;;;;;;;;6.50;99.90;;;;;;5052720;28;20002;-69
2023/12/09 03:55:17;;;;;;;;;;;6.60;99.90;;;;;;5047757;28;20012;-69
2023/12/09 03:57:44;;;;;;;;;;;6.60;99.90;;;;;;5045696;28;19925;-69
2023/12/09 04:00:12;;;;;;;;;;;6.70;99.90;;;;;;5051726;28;20380;-69
2023/12/09 04:02:39;;;;;;;;;;;6.70;99.90;;;;;;5044799;28;19925;-69
2023/12/09 04:05:06;;;;;;;;;;;6.70;99.90;;;;;;5053936;28;19925;-70
2023/12/09 04:07:34;;;;;;;;;;;6.70;99.90;;;;;;5052877;28;19951;-70
2023/12/09 04:10:01;;;;;;;;;;;6.70;99.90;;;;;;5049580;28;19944;-70
2023/12/09 04:12:28;;;;;;;;;;;6.80;99.90;;;;;;5062445;28;19928;-70
2023/12/09 04:14:55;;;;;;;;;;;6.80;99.90;;;;;;5050817;28;19978;-72
2023/12/09 04:17:22;;;;;;;;;;;6.80;99.90;;;;;;5046230;28;20073;-70
2023/12/09 04:19:51;;;;;;;;;;;6.70;99.90;;;;;;5045610;28;19987;-70
2023/12/09 04:22:19;;;;;;;;;;;6.70;99.90;;;;;;5050572;28;20017;-70
2023/12/09 04:24:47;;;;;;;;;;;6.70;99.90;;;;;;5049229;28;19940;-70
2023/12/09 04:27:15;;;;;;;;;;;6.70;99.90;;;;;;5056518;28;20327;-71
2023/12/09 04:29:42;;;;;;;;;;;6.70;99.90;;;;;;5049102;28;20404;-70
2023/12/09 04:32:09;;;;;;;;;;;6.80;99.90;;;;;;5048812;28;19931;-70
2023/12/09 04:34:37;;;;;;;;;;;6.80;99.90;;;;;;5049701;28;19925;-69
2023/12/09 04:37:04;;;;;;;;;;;6.80;99.90;;;;;;5051310;28;19970;-69
2023/12/09 04:39:32;;;;;;;;;;;6.80;99.90;;;;;;5056204;28;20415;-70
2023/12/09 04:42:00;;;;;;;;;;;6.90;99.90;;;;;;5043937;28;20362;-69
2023/12/09 04:44:26;;;;;;;;;;;6.90;99.90;;;;;;5047420;28;19979;-70
2023/12/09 04:46:53;;;;;;;;;;;7.00;99.90;;;;;;5059006;28;19932;-70
2023/12/09 04:49:21;;;;;;;;;;;7.10;99.90;;;;;;5052042;28;19928;-69
2023/12/09 04:51:48;;;;;;;;;;;7.10;99.90;;;;;;5050273;28;20414;-70
2023/12/09 04:54:15;;;;;;;;;;;7.20;99.90;;;;;;5052587;28;20020;-70
2023/12/09 04:56:42;;;;;;;;;;;7.20;99.90;;;;;;5056740;28;19931;-70
2023/12/09 04:59:10;;;;;;;;;;;7.30;99.90;;;;;;5053792;28;19929;-71
2023/12/09 05:01:36;;;;;;;;;;;7.30;99.90;;;;;;5046918;28;19975;-71
2023/12/09 05:04:03;;;;;;;;;;;7.30;99.90;;;;;;5050061;28;20359;-71
2023/12/09 05:06:30;;;;;;;;;;;7.30;99.90;;;;;;5052693;28;19971;-71
2023/12/09 05:08:57;;;;;;;;;;;7.40;99.90;;;;;;5045549;28;19925;-71
2023/12/09 05:11:23;;;;;;;;;;;7.40;99.90;;;;;;5050705;28;20384;-71
2023/12/09 05:13:50;;;;;;;;;;;7.40;99.90;;;;;;5058935;28;19943;-72
2023/12/09 05:16:18;;;;;;;;;;;7.40;99.90;;;;;;5065550;28;19924;-72
2023/12/09 05:18:45;;;;;;;;;;;7.50;99.90;;;;;;5053309;28;19936;-72
2023/12/09 05:21:13;;;;;;;;;;;7.50;99.90;;;;;;5055611;28;20008;-72
2023/12/09 05:23:40;;;;;;;;;;;7.50;99.90;;;;;;5050893;28;19925;-72
2023/12/09 05:26:06;;;;;;;;;;;7.60;99.90;;;;;;5050400;28;19929;-72
2023/12/09 05:28:33;;;;;;;;;;;7.60;99.90;;;;;;5051266;28;19987;-72
2023/12/09 05:31:00;;;;;;;;;;;7.60;99.90;;;;;;5052953;28;19980;-74
2023/12/09 05:33:28;;;;;;;;;;;7.60;99.90;;;;;;5050729;28;19935;-72
2023/12/09 05:35:55;;;;;;;;;;;7.70;99.90;;;;;;5054703;28;19928;-72
2023/12/09 05:38:21;;;;;;;;;;;7.70;99.90;;;;;;5056437;28;20433;-72
2023/12/09 05:40:48;;;;;;;;;;;7.70;99.90;;;;;;5051133;28;19971;-72
2023/12/09 05:43:15;;;;;;;;;;;7.70;99.90;;;;;;5048165;28;19925;-72
2023/12/09 05:45:42;;;;;;;;;;;7.70;99.90;;;;;;5049585;28;19925;-72
2023/12/09 05:48:08;;;;;;;;;;;7.70;99.90;;;;;;5049978;28;19929;-72
2023/12/09 05:50:37;;;;;;;;;;;7.70;99.90;;;;;;5051184;28;19925;-72
2023/12/09 05:53:04;;;;;;;;;;;7.80;99.90;;;;;;5044170;28;19924;-71
2023/12/09 05:55:31;;;;;;;;;;;7.80;99.90;;;;;;5050318;28;19932;-71
2023/12/09 05:57:57;;;;;;;;;;;7.80;99.90;;;;;;5051502;28;20011;-72
2023/12/09 06:00:24;;;;;;;;;;;7.80;99.90;;;;;;5048652;28;19933;-72
2023/12/09 06:02:51;;;;;;;;;;;7.80;99.90;;;;;;5056233;28;19990;-72
2023/12/09 06:05:18;;;;;;;;;;;7.70;99.90;;;;;;5050880;28;19931;-71
2023/12/09 06:07:46;;;;;;;;;;;7.80;99.90;;;;;;5047205;28;20389;-71
2023/12/09 06:10:13;;;;;;;;;;;7.70;99.90;;;;;;5048121;28;19924;-71
2023/12/09 06:12:40;;;;;;;;;;;7.70;99.90;;;;;;5044007;28;19929;-71
2023/12/09 06:15:08;;;;;;;;;;;7.80;99.90;;;;;;5047469;28;20537;-71
2023/12/09 06:17:34;;;;;;;;;;;7.80;99.90;;;;;;5046685;28;19925;-71
2023/12/09 06:20:01;;;;;;;;;;;7.80;99.90;;;;;;5052143;28;19974;-71
2023/12/09 06:22:28;;;;;;;;;;;7.80;99.90;;;;;;5035759;28;19925;-71
2023/12/09 06:24:56;;;;;;;;;;;7.80;99.90;;;;;;5051050;28;19933;-71
2023/12/09 06:27:24;;;;;;;;;;;7.80;99.90;;;;;;5047288;28;20576;-71
2023/12/09 06:29:52;;;;;;;;;;;7.90;99.90;;;;;;5043960;28;19974;-71
2023/12/09 06:32:18;;;;;;;;;;;7.90;99.90;;;;;;5047768;28;19995;-71
2023/12/09 06:34:45;;;;;;;;;;;7.90;99.90;;;;;;5044693;28;19994;-71
2023/12/09 06:37:12;;;;;;;;;;;7.90;99.90;;;;;;5050496;28;19925;-71
2023/12/09 06:39:39;;;;;;;;;;;7.90;99.90;;;;;;5052668;28;19936;-71
2023/12/09 06:42:07;;;;;;;;;;;7.90;99.90;;;;;;5066004;28;19928;-71
2023/12/09 06:44:34;;;;;;;;;;;7.90;99.90;;;;;;5049781;28;20350;-72
2023/12/09 06:47:00;;;;;;;;;;;7.90;99.90;;;;;;5050938;28;19936;-72
2023/12/09 06:49:27;;;;;;;;;;;8.00;99.90;;;;;;5050280;28;19986;-72
2023/12/09 06:51:54;;;;;;;;;;;7.90;99.90;;;;;;5052136;28;19928;-72
2023/12/09 06:54:21;;;;;;;;;;;8.00;99.90;;;;;;5048950;28;20388;-72
2023/12/09 06:56:48;;;;;;;;;;;8.00;99.90;;;;;;5048741;28;19978;-72
2023/12/09 06:59:16;;;;;;;;;;;8.00;99.90;;;;;;5048985;28;19925;-73
2023/12/09 07:01:43;;;;;;;;;;;8.10;99.90;;;;;;5051049;28;19964;-71
2023/12/09 07:04:12;;;;;;;;;;;8.10;99.90;;;;;;5049795;28;20027;-72
2023/12/09 07:06:39;;;;;;;;;;;8.10;99.90;;;;;;5053009;28;19924;-71
2023/12/09 07:09:07;;;;;;;;;;;8.10;99.90;;;;;;5065952;28;20015;-72
2023/12/09 07:11:34;;;;;;;;;;;8.10;99.90;;;;;;5049974;28;19925;-71
2023/12/09 07:14:00;;;;;;;;;;;8.10;99.90;;;;;;5050415;28;19933;-71
2023/12/09 07:16:29;;;;;;;;;;;8.10;99.90;;;;;;5059608;28;19925;-71
2023/12/09 07:18:58;;;;;;;;;;;8.10;99.90;;;;;;5058325;28;19925;-71
2023/12/09 07:21:25;;;;;;;;;;;8.10;99.90;;;;;;5051665;28;19986;-72
2023/12/09 07:23:52;;;;;;;;;;;8.20;99.90;;;;;;5047986;28;19932;-72
2023/12/09 07:26:19;;;;;;;;;;;8.20;99.90;;;;;;5049552;28;19929;-72
2023/12/09 07:28:46;;;;;;;;;;;8.20;99.90;;;;;;5053255;28;20471;-72
2023/12/09 07:31:13;;;;;;;;;;;8.20;99.90;;;;;;5050970;28;19964;-73
2023/12/09 07:33:42;;;;;;;;;;;8.20;99.90;;;;;;5047049;28;21261;-73
2023/12/09 07:36:09;;;;;;;;;;;8.20;99.90;;;;;;5048579;28;19925;-72
2023/12/09 07:38:35;;;;;;;;;;;8.20;99.90;;;;;;5053447;28;19925;-73
2023/12/09 07:41:02;;;;;;;;;;;8.20;99.90;;;;;;5046510;28;20313;-69
2023/12/09 07:43:31;;;;;;;;;;;8.30;99.90;;;;;;5051740;28;20035;-74
2023/12/09 07:45:57;;;;;;;;;;;8.30;99.90;;;;;;5052863;28;19937;-72
2023/12/09 07:48:24;;;;;;;;;;;8.30;99.90;;;;;;5046365;28;20308;-72
2023/12/09 07:50:52;;;;;;;;;;;8.30;99.90;;;;;;5049811;28;20005;-70
2023/12/09 07:53:19;;;;;;;;;;;8.30;99.90;;;;;;5051271;28;19964;-71
2023/12/09 07:55:46;;;;;;;;;;;8.30;99.90;;;;;;5047126;28;19970;-71
2023/12/09 07:58:12;;;;;;;;;;;8.30;99.90;;;;;;5047143;28;19944;-71
2023/12/09 08:00:39;;;;;;;;;;;8.30;99.90;;;;;;5050013;28;20006;-74
2023/12/09 08:03:06;;;;;;;;;;;8.40;99.90;;;;;;5051679;28;19929;-71
2023/12/09 08:05:34;;;;;;;;;;;8.40;99.90;;;;;;5044699;28;19925;-69
2023/12/09 08:08:02;;;;;;;;;;;8.40;99.90;;;;;;5059628;28;19972;-69
2023/12/09 08:10:29;;;;;;;;;;;8.40;99.90;;;;;;5057339;28;19987;-69
2023/12/09 08:12:56;;;;;;;;;;;8.50;99.90;;;;;;5052679;28;20083;-68
2023/12/09 08:15:23;;;;;;;;;;;8.50;99.90;;;;;;5059164;28;19952;-68
2023/12/09 08:17:49;;;;;;;;;;;8.50;99.90;;;;;;5046759;28;19993;-68
2023/12/09 08:20:16;;;;;;;;;;;8.60;99.90;;;;;;5055580;28;19964;-69
2023/12/09 08:22:43;;;;;;;;;;;8.60;99.90;;;;;;5048340;28;19925;-69
2023/12/09 08:25:11;;;;;;;;;;;8.70;99.90;;;;;;5055619;28;19978;-69
2023/12/09 08:27:38;;;;;;;;;;;8.70;99.90;;;;;;5061657;28;19925;-69
2023/12/09 08:30:10;;;;;;;;;;;8.70;99.90;;;;;;5034597;28;20035;-69
2023/12/09 08:32:37;;;;;;;;;;;8.70;99.90;;;;;;5054147;28;19924;-68
2023/12/09 08:35:04;;;;;;;;;;;8.80;99.90;;;;;;5044578;28;20396;-69
2023/12/09 08:37:31;;;;;;;;;;;8.80;99.90;;;;;;5059417;28;20394;-69
2023/12/09 08:39:59;;;;;;;;;;;8.90;99.90;;;;;;5046814;28;20462;-68
2023/12/09 08:42:27;;;;;;;;;;;8.90;99.90;;;;;;5045758;28;19948;-68
2023/12/09 08:44:55;;;;;;;;;;;8.90;99.90;;;;;;5047758;28;19925;-68
2023/12/09 08:47:21;;;;;;;;;;;8.90;99.90;;;;;;5033088;28;19975;-68
2023/12/09 08:49:48;;;;;;;;;;;8.90;99.90;;;;;;5054237;28;19967;-67
2023/12/09 08:52:15;;;;;;;;;;;9.00;99.90;;;;;;5054559;28;19978;-68
2023/12/09 08:54:42;;;;;;;;;;;9.00;99.90;;;;;;5054882;28;20027;-67
2023/12/09 08:57:10;;;;;;;;;;;9.00;99.90;;;;;;5053462;28;20016;-67
2023/12/09 08:59:38;;;;;;;;;;;9.00;99.90;;;;;;5052791;28;20281;-68
2023/12/09 09:02:05;;;;;;;;;;;9.10;99.90;;;;;;5053453;28;19925;-67
2023/12/09 09:04:32;;;;;;;;;;;9.10;99.90;;;;;;5052130;28;19970;-67
2023/12/09 09:06:59;;;;;;;;;;;9.10;99.90;;;;;;5056808;28;20337;-70
2023/12/09 09:09:25;;;;;;;;;;;9.10;99.90;;;;;;5052895;28;19929;-70
2023/12/09 09:11:52;;;;;;;;;;;9.20;99.90;;;;;;5051935;28;19979;-70
2023/12/09 09:14:19;;;;;;;;;;;9.20;99.90;;;;;;5053275;28;19928;-70
2023/12/09 09:16:47;;;;;;;;;;;9.20;99.90;;;;;;5055206;28;19925;-69
2023/12/09 09:19:14;;;;;;;;;;;9.20;99.90;;;;;;5046381;28;19925;-70
2023/12/09 09:21:40;;;;;;;;;;;9.30;99.90;;;;;;5044745;28;19929;-70
2023/12/09 09:24:07;;;;;;;;;;;9.30;99.90;;;;;;5055916;28;20002;-69
2023/12/09 09:26:34;;;;;;;;;;;9.40;99.90;;;;;;5072250;28;20345;-69
2023/12/09 09:29:01;;;;;;;;;;;9.40;99.90;;;;;;5053240;28;20019;-70
2023/12/09 09:31:28;;;;;;;;;;;9.50;99.90;;;;;;5051116;28;20437;-70
2023/12/09 09:33:57;;;;;;;;;;;9.50;99.90;;;;;;5050365;28;19974;-70
2023/12/09 09:36:23;;;;;;;;;;;9.50;99.90;;;;;;5067591;28;19925;-68
2023/12/09 09:38:50;;;;;;;;;;;9.50;99.90;;;;;;5061265;28;20409;-67
2023/12/09 09:41:22;;;;;;;;;;;9.40;99.90;;;;;;5049584;28;19979;-67
2023/12/09 09:43:52;;;;;;;;;;;9.30;99.90;;;;;;5059901;28;20498;-67
2023/12/09 09:46:20;;;;;;;;;;;9.30;99.90;;;;;;5053959;28;19983;-68
2023/12/09 09:48:48;;;;;;;;;;;9.20;99.90;;;;;;5052007;28;20016;-68
2023/12/09 09:51:17;;;;;;;;;;;9.20;99.90;;;;;;5052201;28;20484;-67
2023/12/09 09:53:48;;;;;;;;;;;9.10;99.90;;;;;;5054824;28;20307;-68
2023/12/09 09:56:15;;;;;;;;;;;9.10;99.90;;;;;;5066036;28;19929;-68
2023/12/09 09:58:44;;;;;;;;;;;9.10;99.90;;;;;;5050990;28;20379;-70
2023/12/09 10:01:12;;;;;;;;;;;9.10;99.90;;;;;;5050076;28;20070;-68
2023/12/09 10:03:39;;;;;;;;;;;9.00;99.90;;;;;;5050813;28;19940;-68
2023/12/09 10:06:06;;;;;;;;;;;9.00;99.90;;;;;;5049936;28;19943;-67
2023/12/09 10:08:35;;;;;;;;;;;9.00;99.90;;;;;;5050701;28;19977;-68
2023/12/09 10:11:01;;;;;;;;;;;8.90;99.90;;;;;;5067632;28;19928;-68
2023/12/09 10:13:28;;;;;;;;;;;8.90;99.90;;;;;;5059085;28;19978;-68
2023/12/09 10:15:55;;;;;;;;;;;8.90;99.90;;;;;;5055654;28;19925;-69
2023/12/09 10:18:22;;;;;;;;;;;8.90;99.90;;;;;;5054375;28;19933;-68
2023/12/09 10:20:48;;;;;;;;;;;8.90;99.90;;;;;;5071886;28;19925;-68
2023/12/09 10:23:15;;;;;;;;;;;8.90;99.90;;;;;;5061490;28;19975;-68
2023/12/09 10:25:44;;;;;;;;;;;9.00;99.90;;;;;;5054667;28;19924;-68
2023/12/09 10:28:10;;;;;;;;;;;8.90;99.90;;;;;;5058746;28;19924;-68
2023/12/09 10:30:37;;;;;;;;;;;9.00;99.90;;;;;;5047552;28;20346;-69
2023/12/09 10:33:05;;;;;;;;;;;9.00;99.90;;;;;;5059037;28;19925;-68
2023/12/09 10:35:34;;;;;;;;;;;9.00;99.90;;;;;;5053899;28;19929;-69
2023/12/09 10:38:02;;;;;;;;;;;9.00;99.90;;;;;;5050382;28;20262;-69
2023/12/09 10:40:29;;;;;;;;;;;9.00;99.90;;;;;;5050308;28;19928;-68
2023/12/09 10:42:58;;;;;;;;;;;8.90;99.90;;;;;;5049785;28;19925;-68
2023/12/09 10:45:25;;;;;;;;;;;8.90;99.90;;;;;;5050724;28;20413;-67
2023/12/09 10:47:53;;;;;;;;;;;8.90;99.90;;;;;;5048882;28;19925;-68
2023/12/09 10:50:20;;;;;;;;;;;9.00;99.90;;;;;;5046451;28;19933;-68
2023/12/09 10:52:48;;;;;;;;;;;9.00;99.90;;;;;;5048219;28;20051;-68
2023/12/09 10:55:15;;;;;;;;;;;9.00;99.90;;;;;;5050732;28;20343;-68
2023/12/09 10:57:43;;;;;;;;;;;9.00;99.90;;;;;;5049057;28;19963;-69
2023/12/09 11:00:15;;;;;;;;;;;9.00;99.90;;;;;;5057803;28;19979;-68
2023/12/09 11:02:42;;;;;;;;;;;9.00;99.90;;;;;;5051865;28;20411;-68
2023/12/09 11:05:10;;;;;;;;;;;9.00;99.90;;;;;;5050796;28;20046;-68
2023/12/09 11:07:38;;;;;;;;;;;9.00;99.90;;;;;;5049646;28;20463;-66
2023/12/09 11:10:06;;;;;;;;;;;9.00;99.90;;;;;;5053874;28;19924;-67
2023/12/09 11:12:33;;;;;;;;;;;9.10;99.90;;;;;;5051699;28;19979;-67
2023/12/09 11:15:01;;;;;;;;;;;9.10;99.90;;;;;;5048024;28;19994;-70
2023/12/09 11:17:36;;;;;;;;;;;9.00;99.90;;;;;;5050301;28;19928;-70
2023/12/09 11:20:09;;;;;;;;;;;9.00;99.90;;;;;;5051176;28;19936;-70
2023/12/09 11:22:37;;;;;;;;;;;9.00;99.90;;;;;;5050758;28;20007;-70
2023/12/09 11:25:04;;;;;;;;;;;9.00;99.90;;;;;;5054817;28;19925;-72
2023/12/09 11:27:33;;;;;;;;;;;9.00;99.90;;;;;;5057706;28;20334;-71
2023/12/09 11:30:00;;;;;;;;;;;8.90;99.90;;;;;;5052246;28;19999;-70
2023/12/09 11:32:29;;;;;;;;;;;8.90;99.90;;;;;;5053864;28;19925;-69
2023/12/09 11:34:57;;;;;;;;;;;8.90;99.90;;;;;;5054140;28;19924;-68
2023/12/09 11:37:26;;;;;;;;;;;8.90;99.90;;;;;;5054251;28;19964;-68
2023/12/09 11:39:53;;;;;;;;;;;8.80;99.90;;;;;;5053512;28;19983;-68
2023/12/09 11:42:21;;;;;;;;;;;8.80;99.90;;;;;;5053377;28;19933;-68
2023/12/09 11:44:48;;;;;;;;;;;8.70;99.90;;;;;;5061844;28;20027;-68
2023/12/09 11:47:15;;;;;;;;;;;8.70;99.90;;;;;;5052537;28;19956;-68
2023/12/09 11:49:43;;;;;;;;;;;8.70;99.90;;;;;;5054357;28;20302;-68
2023/12/09 11:52:11;;;;;;;;;;;8.60;99.90;;;;;;5054940;28;19956;-68
2023/12/09 11:54:38;;;;;;;;;;;8.60;99.90;;;;;;5053939;28;19967;-68
2023/12/09 11:57:05;;;;;;;;;;;8.70;99.90;;;;;;5054767;28;19928;-68
2023/12/09 11:59:31;;;;;;;;;;;8.60;99.90;;;;;;5054580;28;19975;-68
2023/12/09 12:01:59;;;;;;;;;;;8.60;99.90;;;;;;5051594;28;20082;-68
2023/12/09 12:04:32;;;;;;;;;;;8.60;99.90;;;;;;5053580;28;20379;-68
2023/12/09 12:06:59;;;;;;;;;;;8.70;99.90;;;;;;5052922;28;20015;-68
2023/12/09 12:09:27;;;;;;;;;;;8.70;99.90;;;;;;5053229;28;20072;-68
2023/12/09 12:11:54;;;;;;;;;;;8.70;99.90;;;;;;5053649;28;20252;-68
2023/12/09 12:14:21;;;;;;;;;;;8.70;99.90;;;;;;5052202;28;20010;-69
2023/12/09 12:16:47;;;;;;;;;;;8.70;99.90;;;;;;5052962;28;19925;-68
2023/12/09 12:19:14;;;;;;;;;;;8.70;99.90;;;;;;5054834;28;19936;-68
2023/12/09 12:21:41;;;;;;;;;;;8.70;99.90;;;;;;5052483;28;19929;-68
2023/12/09 12:24:08;;;;;;;;;;;8.70;99.90;;;;;;5052857;28;19944;-68
2023/12/09 12:26:36;;;;;;;;;;;8.70;99.90;;;;;;5053397;28;20016;-68
2023/12/09 12:29:04;;;;;;;;;;;8.70;99.90;;;;;;5051844;28;19924;-68
2023/12/09 12:31:31;;;;;;;;;;;8.80;99.90;;;;;;5052133;28;19989;-68
2023/12/09 12:34:00;;;;;;;;;;;8.80;99.90;;;;;;5050762;28;19924;-67
2023/12/09 12:36:30;;;;;;;;;;;8.70;99.90;;;;;;5052542;28;20399;-68
2023/12/09 12:38:57;;;;;;;;;;;8.70;99.90;;;;;;5053784;28;20341;-69
2023/12/09 12:41:23;;;;;;;;;;;8.70;99.90;;;;;;5053341;28;19928;-68
2023/12/09 12:43:52;;;;;;;;;;;8.60;99.90;;;;;;5051965;28;19933;-67
2023/12/09 12:46:20;;;;;;;;;;;8.60;99.90;;;;;;5052301;28;20486;-69
2023/12/09 12:48:47;;;;;;;;;;;8.70;99.90;;;;;;5052428;28;19925;-67
2023/12/09 12:51:14;;;;;;;;;;;8.70;99.90;;;;;;5042921;28;20350;-67
2023/12/09 12:53:40;;;;;;;;;;;8.70;99.90;;;;;;5048610;28;19971;-68
2023/12/09 12:56:08;;;;;;;;;;;8.70;99.90;;;;;;5050080;28;19932;-67
2023/12/09 12:58:35;;;;;;;;;;;8.70;99.90;;;;;;5052074;28;19939;-68
2023/12/09 13:01:03;;;;;;;;;;;8.70;99.90;;;;;;5041142;28;19924;-68
2023/12/09 13:03:30;;;;;;;;;;;8.70;99.90;;;;;;5050840;28;19925;-67
2023/12/09 13:05:56;;;;;;;;;;;8.60;99.90;;;;;;5038828;28;19925;-68
2023/12/09 13:08:23;;;;;;;;;;;8.60;99.90;;;;;;5050006;28;19982;-70
2023/12/09 13:10:50;;;;;;;;;;;8.70;99.90;;;;;;5050233;28;20365;-69
2023/12/09 13:13:17;;;;;;;;;;;8.70;99.90;;;;;;5046622;28;20437;-71
2023/12/09 13:15:44;;;;;;;;;;;8.70;99.90;;;;;;5049250;28;19932;-69
2023/12/09 13:18:12;;;;;;;;;;;8.70;99.90;;;;;;5046327;28;20298;-70
2023/12/09 13:20:39;;;;;;;;;;;8.70;99.90;;;;;;5043712;28;19947;-70
2023/12/09 13:23:06;;;;;;;;;;;8.70;99.90;;;;;;5037044;28;19940;-70
2023/12/09 13:25:33;;;;;;;;;;;8.70;99.90;;;;;;5051562;28;20276;-70
2023/12/09 13:28:00;;;;;;;;;;;8.70;99.90;;;;;;5049636;28;20384;-71
2023/12/09 13:30:27;;;;;;;;;;;8.70;99.90;;;;;;5042224;28;19978;-71
2023/12/09 13:33:00;;;;;;;;;;;9.40;99.90;;;;;;5052375;28;19932;-71
2023/12/09 13:35:30;;;;;;;;;;;8.70;99.90;;;;;;5043851;28;19948;-71
2023/12/09 13:37:57;;;;;;;;;;;8.80;99.90;;;;;;5042167;28;19925;-71
2023/12/09 13:40:24;;;;;;;;;;;8.80;99.90;;;;;;5041692;28;20402;-70
2023/12/09 13:42:51;;;;;;;;;;;8.80;99.90;;;;;;5053947;28;19936;-71
2023/12/09 13:45:18;;;;;;;;;;;8.80;99.90;;;;;;5044705;28;19975;-70
2023/12/09 13:47:45;;;;;;;;;;;8.80;99.90;;;;;;5045758;28;19940;-70
2023/12/09 13:50:12;;;;;;;;;;;8.80;99.90;;;;;;5045062;28;20024;-71
2023/12/09 13:52:41;;;;;;;;;;;8.80;99.90;;;;;;5045364;28;19932;-71
2023/12/09 13:55:09;;;;;;;;;;;8.90;99.90;;;;;;5036183;28;19929;-71
2023/12/09 13:57:36;;;;;;;;;;;8.90;99.90;;;;;;5049402;28;19964;-71
2023/12/09 14:00:07;;;;;;;;;;;8.90;99.90;;;;;;5051028;28;19924;-72
2023/12/09 14:02:34;;;;;;;;;;;8.90;99.90;;;;;;5050143;28;19951;-71
2023/12/09 14:05:03;;;;;;;;;;;9.00;99.90;;;;;;5042758;28;19925;-73
2023/12/09 14:07:30;;;;;;;;;;;9.00;99.90;;;;;;5039137;28;20371;-72
2023/12/09 14:09:59;;;;;;;;;;;8.90;99.90;;;;;;5039134;28;19924;-72
2023/12/09 14:12:26;;;;;;;;;;;8.90;99.90;;;;;;5040252;28;19932;-71
2023/12/09 14:14:52;;;;;;;;;;;9.00;99.90;;;;;;5042219;28;19925;-72
2023/12/09 14:17:19;;;;;;;;;;;9.00;99.90;;;;;;5043701;28;19925;-71
2023/12/09 14:19:46;;;;;;;;;;;9.00;99.90;;;;;;5038436;28;19925;-70
2023/12/09 14:22:13;;;;;;;;;;;9.10;99.90;;;;;;5044185;28;20028;-69
2023/12/09 14:24:40;;;;;;;;;;;9.10;99.90;;;;;;5048138;28;19929;-69
2023/12/09 14:27:08;;;;;;;;;;;9.10;99.90;;;;;;5039526;28;20078;-70
2023/12/09 14:29:35;;;;;;;;;;;9.10;99.90;;;;;;5041717;28;19932;-68
2023/12/09 14:32:02;;;;;;;;;;;9.10;99.90;;;;;;5045867;28;19933;-68